sensor_id;sensor_type;location;lat;lon;timestamp;pressure;altitude;pressure_sealevel;temperature;humidity
40285;BME280;25997;50.214;19.354;2022-09-25T00:00:02;97614.88;;;10.30;50.92
40285;BME280;25997;50.214;19.354;2022-09-25T00:03:05;97613.06;;;10.27;51.03
40285;BME280;25997;50.214;19.354;2022-09-25T00:06:10;97607.81;;;10.27;51.13
40285;BME280;25997;50.214;19.354;2022-09-25T00:09:13;97606.22;;;10.34;50.87
40285;BME280;25997;50.214;19.354;2022-09-25T00:12:21;97601.00;;;10.35;50.78
40285;BME280;25997;50.214;19.354;2022-09-25T00:15:24;97601.84;;;10.34;50.90
40285;BME280;25997;50.214;19.354;2022-09-25T00:18:26;97594.88;;;10.35;50.87
40285;BME280;25997;50.214;19.354;2022-09-25T02:11:42;97566.97;;;10.88;51.09
40285;BME280;25997;50.214;19.354;2022-09-25T02:14:50;97565.22;;;10.88;51.09
40285;BME280;25997;50.214;19.354;2022-09-25T02:18:00;97563.44;;;10.87;51.35
40285;BME280;25997;50.214;19.354;2022-09-25T02:21:26;97561.72;;;10.88;51.25
40285;BME280;25997;50.214;19.354;2022-09-25T02:24:39;97559.16;;;10.92;51.07
40285;BME280;25997;50.214;19.354;2022-09-25T02:27:50;97567.94;;;10.93;51.29
40285;BME280;25997;50.214;19.354;2022-09-25T02:30:59;97563.59;;;10.95;51.26
40285;BME280;25997;50.214;19.354;2022-09-25T02:34:03;97561.78;;;10.91;51.47
40285;BME280;25997;50.214;19.354;2022-09-25T02:37:09;97560.13;;;10.97;51.25
40285;BME280;25997;50.214;19.354;2022-09-25T02:40:12;97562.91;;;11.06;51.51
40285;BME280;25997;50.214;19.354;2022-09-25T02:43:34;97557.84;;;11.15;51.46
40285;BME280;25997;50.214;19.354;2022-09-25T02:46:43;97562.13;;;11.10;51.36
40285;BME280;25997;50.214;19.354;2022-09-25T02:49:55;97554.94;;;11.02;51.28
40285;BME280;25997;50.214;19.354;2022-09-25T02:53:25;97556.53;;;10.92;51.50
40285;BME280;25997;50.214;19.354;2022-09-25T02:56:34;97553.81;;;10.86;51.77
40285;BME280;25997;50.214;19.354;2022-09-25T02:59:44;97552.91;;;10.86;51.83
40285;BME280;25997;50.214;19.354;2022-09-25T03:02:50;97545.78;;;10.77;52.20
40285;BME280;25997;50.214;19.354;2022-09-25T03:05:56;97545.72;;;10.74;51.99
40285;BME280;25997;50.214;19.354;2022-09-25T03:09:01;97541.28;;;10.71;nan
40285;BME280;25997;50.214;19.354;2022-09-25T03:12:04;97536.03;;;10.71;52.26
40285;BME280;25997;50.214;19.354;2022-09-25T03:15:34;97532.66;;;10.77;52.56
40285;BME280;25997;50.214;19.354;2022-09-25T03:18:37;97534.38;;;10.77;51.91
40285;BME280;25997;50.214;19.354;2022-09-25T03:21:45;97535.44;;;10.86;51.90
40285;BME280;25997;50.214;19.354;2022-09-25T03:24:47;97539.97;;;10.98;51.58
40285;BME280;25997;50.214;19.354;2022-09-25T03:27:51;97548.00;;;11.07;51.49
40285;BME280;25997;50.214;19.354;2022-09-25T03:31:00;97533.97;;;11.05;51.29
40285;BME280;25997;50.214;19.354;2022-09-25T03:34:04;97539.06;;;10.94;51.17
40285;BME280;25997;50.214;19.354;2022-09-25T03:37:07;97536.94;;;10.73;51.43
40285;BME280;25997;50.214;19.354;2022-09-25T03:40:10;97532.25;;;10.54;51.78
40285;BME280;25997;50.214;19.354;2022-09-25T03:43:13;97531.97;;;10.39;51.79
40285;BME280;25997;50.214;19.354;2022-09-25T03:46:20;97521.19;;;10.24;52.17
40285;BME280;25997;50.214;19.354;2022-09-25T03:49:25;97524.66;;;10.22;52.21
40285;BME280;25997;50.214;19.354;2022-09-25T03:52:27;97528.13;;;10.22;52.51
40285;BME280;25997;50.214;19.354;2022-09-25T03:55:30;97516.94;;;10.31;52.58
40285;BME280;25997;50.214;19.354;2022-09-25T03:58:34;97523.28;;;10.42;52.58
40285;BME280;25997;50.214;19.354;2022-09-25T04:01:39;97515.59;;;10.54;52.24
40285;BME280;25997;50.214;19.354;2022-09-25T04:04:42;97520.94;;;10.60;52.37
40285;BME280;25997;50.214;19.354;2022-09-25T04:07:46;97523.66;;;10.64;52.13
40285;BME280;25997;50.214;19.354;2022-09-25T04:10:48;97520.00;;;10.55;52.36
40285;BME280;25997;50.214;19.354;2022-09-25T04:13:51;97522.44;;;10.44;52.50
40285;BME280;25997;50.214;19.354;2022-09-25T04:16:55;97518.03;;;10.43;52.95
40285;BME280;25997;50.214;19.354;2022-09-25T04:19:58;97523.41;;;10.49;52.94
40285;BME280;25997;50.214;19.354;2022-09-25T04:23:07;97533.16;;;10.58;52.81
40285;BME280;25997;50.214;19.354;2022-09-25T04:26:09;97528.91;;;10.64;52.57
40285;BME280;25997;50.214;19.354;2022-09-25T04:29:16;97524.69;;;10.71;52.52
40285;BME280;25997;50.214;19.354;2022-09-25T04:32:20;97526.44;;;10.72;52.66
40285;BME280;25997;50.214;19.354;2022-09-25T04:35:40;97527.25;;;10.69;52.55
40285;BME280;25997;50.214;19.354;2022-09-25T04:38:45;97528.16;;;10.70;52.69
40285;BME280;25997;50.214;19.354;2022-09-25T04:41:48;97529.03;;;10.70;52.64
40285;BME280;25997;50.214;19.354;2022-09-25T04:44:52;97527.34;;;10.75;52.65
40285;BME280;25997;50.214;19.354;2022-09-25T04:47:58;97522.22;;;10.82;52.60
40285;BME280;25997;50.214;19.354;2022-09-25T04:51:04;97525.94;;;10.96;52.55
40285;BME280;25997;50.214;19.354;2022-09-25T04:54:07;97536.59;;;11.05;52.54
40285;BME280;25997;50.214;19.354;2022-09-25T04:57:13;97527.16;;;11.14;52.20
40285;BME280;25997;50.214;19.354;2022-09-25T05:00:16;97537.72;;;11.17;52.00
40285;BME280;25997;50.214;19.354;2022-09-25T05:03:23;97541.28;;;11.22;51.88
40285;BME280;25997;50.214;19.354;2022-09-25T05:06:25;97538.56;;;11.15;51.89
40285;BME280;25997;50.214;19.354;2022-09-25T05:09:28;97537.47;;;11.05;52.00
40285;BME280;25997;50.214;19.354;2022-09-25T05:12:31;97542.59;;;10.98;52.42
40285;BME280;25997;50.214;19.354;2022-09-25T05:15:34;97547.00;;;10.97;52.37
40285;BME280;25997;50.214;19.354;2022-09-25T05:18:41;97549.56;;;10.96;52.63
40285;BME280;25997;50.214;19.354;2022-09-25T05:21:44;97548.81;;;11.01;52.71
40285;BME280;25997;50.214;19.354;2022-09-25T05:24:47;97543.75;;;11.13;52.95
40285;BME280;25997;50.214;19.354;2022-09-25T05:27:50;97544.88;;;11.27;52.72
40285;BME280;25997;50.214;19.354;2022-09-25T05:30:54;97549.28;;;11.28;52.61
40285;BME280;25997;50.214;19.354;2022-09-25T05:33:58;97547.41;;;11.20;52.72
40285;BME280;25997;50.214;19.354;2022-09-25T05:37:02;97550.97;;;11.25;52.67
40285;BME280;25997;50.214;19.354;2022-09-25T05:40:06;97548.56;;;11.40;52.63
40285;BME280;25997;50.214;19.354;2022-09-25T05:43:09;97547.97;;;11.59;52.28
40285;BME280;25997;50.214;19.354;2022-09-25T05:46:13;97546.50;;;11.82;51.97
40285;BME280;25997;50.214;19.354;2022-09-25T05:49:19;97546.81;;;12.03;51.83
40285;BME280;25997;50.214;19.354;2022-09-25T05:52:21;97553.94;;;12.10;51.69
40285;BME280;25997;50.214;19.354;2022-09-25T05:55:24;97550.50;;;12.16;51.96
40285;BME280;25997;50.214;19.354;2022-09-25T05:58:28;97550.59;;;12.24;51.77
40285;BME280;25997;50.214;19.354;2022-09-25T06:01:32;97551.53;;;12.30;51.75
40285;BME280;25997;50.214;19.354;2022-09-25T06:04:36;97550.59;;;12.24;51.81
40285;BME280;25997;50.214;19.354;2022-09-25T06:07:41;97542.59;;;12.16;52.00
40285;BME280;25997;50.214;19.354;2022-09-25T06:10:50;97545.22;;;12.14;52.02
40285;BME280;25997;50.214;19.354;2022-09-25T06:13:54;97538.00;;;12.00;52.29
40285;BME280;25997;50.214;19.354;2022-09-25T06:16:57;97539.63;;;11.90;52.48
40285;BME280;25997;50.214;19.354;2022-09-25T06:20:02;97536.00;;;11.81;52.55
40285;BME280;25997;50.214;19.354;2022-09-25T06:23:30;97528.09;;;11.79;52.34
40285;BME280;25997;50.214;19.354;2022-09-25T06:26:37;97528.69;;;11.60;52.58
40285;BME280;25997;50.214;19.354;2022-09-25T06:29:39;97529.44;;;11.52;52.81
40285;BME280;25997;50.214;19.354;2022-09-25T06:32:42;97529.50;;;11.53;52.90
40285;BME280;25997;50.214;19.354;2022-09-25T06:35:47;97533.94;;;11.59;53.19
40285;BME280;25997;50.214;19.354;2022-09-25T06:44:09;97534.66;;;11.47;54.12
40285;BME280;25997;50.214;19.354;2022-09-25T06:51:59;97527.28;;;11.23;53.38
40285;BME280;25997;50.214;19.354;2022-09-25T06:55:01;97533.38;;;11.19;53.93
40285;BME280;25997;50.214;19.354;2022-09-25T06:58:05;97533.47;;;11.27;54.04
40285;BME280;25997;50.214;19.354;2022-09-25T07:01:08;97537.94;;;11.31;54.31
40285;BME280;25997;50.214;19.354;2022-09-25T07:04:11;97540.59;;;11.34;54.50
40285;BME280;25997;50.214;19.354;2022-09-25T07:07:14;97546.75;;;11.36;54.40
40285;BME280;25997;50.214;19.354;2022-09-25T07:10:19;97554.69;;;11.39;54.76
40285;BME280;25997;50.214;19.354;2022-09-25T07:13:24;97552.06;;;11.40;55.03
40285;BME280;25997;50.214;19.354;2022-09-25T07:16:28;97547.84;;;11.50;55.02
40285;BME280;25997;50.214;19.354;2022-09-25T07:19:32;97540.03;;;11.55;55.06
40285;BME280;25997;50.214;19.354;2022-09-25T07:22:37;97544.44;;;11.57;55.14
40285;BME280;25997;50.214;19.354;2022-09-25T07:25:40;97555.81;;;11.56;55.36
40285;BME280;25997;50.214;19.354;2022-09-25T07:28:43;97549.78;;;11.65;55.59
40285;BME280;25997;50.214;19.354;2022-09-25T07:31:45;97555.09;;;11.66;55.62
40285;BME280;25997;50.214;19.354;2022-09-25T07:34:48;97555.03;;;11.63;55.95
40285;BME280;25997;50.214;19.354;2022-09-25T07:37:54;97549.72;;;11.59;56.25
40285;BME280;25997;50.214;19.354;2022-09-25T07:40:57;97562.00;;;11.60;56.32
40285;BME280;25997;50.214;19.354;2022-09-25T07:44:00;97557.53;;;11.56;56.70
40285;BME280;25997;50.214;19.354;2022-09-25T07:47:02;97561.91;;;11.52;57.03
40285;BME280;25997;50.214;19.354;2022-09-25T07:50:06;97549.72;;;11.60;57.19
40285;BME280;25997;50.214;19.354;2022-09-25T07:53:10;97541.25;;;11.81;57.42
40285;BME280;25997;50.214;19.354;2022-09-25T07:56:13;97532.75;;;12.04;57.18
40285;BME280;25997;50.214;19.354;2022-09-25T07:59:16;97528.66;;;12.25;57.12
40285;BME280;25997;50.214;19.354;2022-09-25T08:02:19;97543.75;;;12.42;56.91
40285;BME280;25997;50.214;19.354;2022-09-25T08:05:22;97533.31;;;12.51;56.51
40285;BME280;25997;50.214;19.354;2022-09-25T08:08:26;97526.41;;;12.59;56.41
40285;BME280;25997;50.214;19.354;2022-09-25T08:11:29;97532.56;;;12.63;56.24
40285;BME280;25997;50.214;19.354;2022-09-25T08:14:31;97525.63;;;12.71;56.25
40285;BME280;25997;50.214;19.354;2022-09-25T08:17:34;97529.25;;;12.83;55.89
40285;BME280;25997;50.214;19.354;2022-09-25T08:20:36;97525.78;;;12.89;55.72
40285;BME280;25997;50.214;19.354;2022-09-25T08:23:42;97520.53;;;12.92;55.69
40285;BME280;25997;50.214;19.354;2022-09-25T08:26:46;97526.69;;;12.94;55.42
40285;BME280;25997;50.214;19.354;2022-09-25T08:29:48;97532.81;;;12.90;55.53
40285;BME280;25997;50.214;19.354;2022-09-25T08:32:51;97530.16;;;12.84;55.71
40285;BME280;25997;50.214;19.354;2022-09-25T08:35:54;97530.97;;;12.78;56.00
40285;BME280;25997;50.214;19.354;2022-09-25T08:38:58;97523.91;;;12.76;56.18
40285;BME280;25997;50.214;19.354;2022-09-25T08:42:01;97517.81;;;12.84;56.44
40285;BME280;25997;50.214;19.354;2022-09-25T08:45:06;97510.03;;;12.97;56.63
40285;BME280;25997;50.214;19.354;2022-09-25T08:48:34;97515.53;;;13.22;56.29
40285;BME280;25997;50.214;19.354;2022-09-25T08:52:06;97514.81;;;13.49;56.39
40285;BME280;25997;50.214;19.354;2022-09-25T08:55:21;97509.69;;;13.69;56.24
40285;BME280;25997;50.214;19.354;2022-09-25T08:58:50;97509.72;;;13.81;56.11
40285;BME280;25997;50.214;19.354;2022-09-25T09:01:56;97513.28;;;13.84;55.73
40285;BME280;25997;50.214;19.354;2022-09-25T09:05:00;97504.41;;;13.76;55.53
40285;BME280;25997;50.214;19.354;2022-09-25T09:08:06;97506.16;;;13.68;55.62
40285;BME280;25997;50.214;19.354;2022-09-25T09:11:14;97501.75;;;13.70;55.84
40285;BME280;25997;50.214;19.354;2022-09-25T09:14:20;97500.03;;;13.75;55.91
40285;BME280;25997;50.214;19.354;2022-09-25T09:17:25;97506.19;;;13.80;55.75
40285;BME280;25997;50.214;19.354;2022-09-25T09:20:36;97500.13;;;13.93;55.95
40285;BME280;25997;50.214;19.354;2022-09-25T09:23:53;97489.66;;;14.13;56.37
40285;BME280;25997;50.214;19.354;2022-09-25T09:27:13;97502.94;;;14.37;56.14
40285;BME280;25997;50.214;19.354;2022-09-25T09:30:22;97506.47;;;14.59;56.10
40285;BME280;25997;50.214;19.354;2022-09-25T09:33:38;97508.28;;;14.75;55.72
40285;BME280;25997;50.214;19.354;2022-09-25T09:36:47;97497.72;;;14.94;55.81
40285;BME280;25997;50.214;19.354;2022-09-25T09:40:02;97510.06;;;15.06;54.61
40285;BME280;25997;50.214;19.354;2022-09-25T09:43:21;97509.19;;;15.01;54.47
40285;BME280;25997;50.214;19.354;2022-09-25T09:46:40;97497.72;;;15.10;54.85
40285;BME280;25997;50.214;19.354;2022-09-25T09:49:49;97495.97;;;15.10;54.34
40285;BME280;25997;50.214;19.354;2022-09-25T09:52:58;97489.78;;;15.20;55.07
40285;BME280;25997;50.214;19.354;2022-09-25T09:56:08;97499.47;;;15.26;54.99
40285;BME280;25997;50.214;19.354;2022-09-25T09:59:15;97503.88;;;15.34;54.58
40285;BME280;25997;50.214;19.354;2022-09-25T10:02:35;97500.34;;;15.34;53.90
40285;BME280;25997;50.214;19.354;2022-09-25T10:05:41;97488.91;;;15.33;54.37
40285;BME280;25997;50.214;19.354;2022-09-25T10:08:45;97489.75;;;15.40;54.23
40285;BME280;25997;50.214;19.354;2022-09-25T10:11:54;97482.69;;;15.46;53.95
40285;BME280;25997;50.214;19.354;2022-09-25T10:15:03;97488.81;;;15.51;53.73
40285;BME280;25997;50.214;19.354;2022-09-25T10:18:09;97482.66;;;15.49;53.19
40285;BME280;25997;50.214;19.354;2022-09-25T10:21:15;97486.19;;;15.59;53.85
40285;BME280;25997;50.214;19.354;2022-09-25T10:24:45;97477.28;;;15.83;53.81
40285;BME280;25997;50.214;19.354;2022-09-25T10:27:51;97478.06;;;16.07;53.49
40285;BME280;25997;50.214;19.354;2022-09-25T10:30:56;97477.94;;;16.31;52.92
40285;BME280;25997;50.214;19.354;2022-09-25T10:34:02;97486.72;;;16.47;52.04
40285;BME280;25997;50.214;19.354;2022-09-25T10:37:14;97480.34;;;16.74;51.24
40285;BME280;25997;50.214;19.354;2022-09-25T10:40:25;97480.97;;;17.04;51.37
40285;BME280;25997;50.214;19.354;2022-09-25T10:43:28;97478.09;;;17.33;51.04
40285;BME280;25997;50.214;19.354;2022-09-25T10:46:33;97473.25;;;17.73;50.34
40285;BME280;25997;50.214;19.354;2022-09-25T10:49:53;97479.34;;;18.49;50.20
40285;BME280;25997;50.214;19.354;2022-09-25T10:53:25;97471.06;;;19.25;48.26
40285;BME280;25997;50.214;19.354;2022-09-25T10:56:30;97468.25;;;19.80;48.04
40285;BME280;25997;50.214;19.354;2022-09-25T10:59:38;97472.34;;;19.98;46.77
40285;BME280;25997;50.214;19.354;2022-09-25T11:02:43;97466.03;;;19.59;46.24
40285;BME280;25997;50.214;19.354;2022-09-25T11:05:49;97468.75;;;19.56;47.05
40285;BME280;25997;50.214;19.354;2022-09-25T11:09:02;97467.84;;;20.44;46.05
40285;BME280;25997;50.214;19.354;2022-09-25T11:12:07;97464.00;;;20.94;45.59
40285;BME280;25997;50.214;19.354;2022-09-25T11:15:18;97463.44;;;20.40;45.55
40285;BME280;25997;50.214;19.354;2022-09-25T11:18:37;97454.16;;;20.58;44.45
40285;BME280;25997;50.214;19.354;2022-09-25T11:21:47;97461.31;;;20.94;44.51
40285;BME280;25997;50.214;19.354;2022-09-25T11:24:56;97453.47;;;20.50;45.01
40285;BME280;25997;50.214;19.354;2022-09-25T11:28:07;97461.75;;;19.95;45.07
40285;BME280;25997;50.214;19.354;2022-09-25T11:31:16;97458.94;;;19.08;45.00
40285;BME280;25997;50.214;19.354;2022-09-25T11:34:53;97461.41;;;18.63;44.89
40285;BME280;25997;50.214;19.354;2022-09-25T11:38:04;97458.56;;;18.16;46.61
40285;BME280;25997;50.214;19.354;2022-09-25T11:41:14;97451.63;;;18.03;46.84
40285;BME280;25997;50.214;19.354;2022-09-25T11:44:27;97448.88;;;18.12;46.78
40285;BME280;25997;50.214;19.354;2022-09-25T11:47:37;97448.88;;;18.12;47.09
40285;BME280;25997;50.214;19.354;2022-09-25T11:50:51;97435.66;;;18.67;46.68
40285;BME280;25997;50.214;19.354;2022-09-25T11:54:04;97432.00;;;19.24;45.81
40285;BME280;25997;50.214;19.354;2022-09-25T11:57:19;97420.91;;;19.50;45.45
40285;BME280;25997;50.214;19.354;2022-09-25T12:00:35;97418.56;;;19.79;44.81
40285;BME280;25997;50.214;19.354;2022-09-25T12:03:53;97407.44;;;19.59;44.47
40285;BME280;25997;50.214;19.354;2022-09-25T12:07:17;97402.63;;;19.30;45.01
40285;BME280;25997;50.214;19.354;2022-09-25T12:10:33;97404.03;;;19.02;45.29
40285;BME280;25997;50.214;19.354;2022-09-25T12:13:43;97404.38;;;18.83;46.07
40285;BME280;25997;50.214;19.354;2022-09-25T12:16:53;97402.94;;;18.60;46.15
40285;BME280;25997;50.214;19.354;2022-09-25T12:20:05;97399.66;;;18.46;46.44
40285;BME280;25997;50.214;19.354;2022-09-25T12:23:19;97400.59;;;18.41;45.90
40285;BME280;25997;50.214;19.354;2022-09-25T12:26:29;97392.34;;;18.01;47.06
40285;BME280;25997;50.214;19.354;2022-09-25T12:29:46;97395.31;;;17.75;47.05
40285;BME280;25997;50.214;19.354;2022-09-25T12:33:00;97389.31;;;17.60;47.92
40285;BME280;25997;50.214;19.354;2022-09-25T12:36:09;97383.22;;;17.52;47.91
40285;BME280;25997;50.214;19.354;2022-09-25T12:39:29;97376.84;;;17.65;47.75
40285;BME280;25997;50.214;19.354;2022-09-25T12:42:38;97385.63;;;17.70;47.47
40285;BME280;25997;50.214;19.354;2022-09-25T12:45:45;97395.25;;;17.80;46.95
40285;BME280;25997;50.214;19.354;2022-09-25T12:48:52;97389.22;;;17.67;46.48
40285;BME280;25997;50.214;19.354;2022-09-25T12:52:01;97388.53;;;17.53;47.42
40285;BME280;25997;50.214;19.354;2022-09-25T12:55:12;97394.94;;;17.31;47.32
40285;BME280;25997;50.214;19.354;2022-09-25T12:58:26;97381.69;;;17.33;47.62
40285;BME280;25997;50.214;19.354;2022-09-25T13:01:38;97386.16;;;17.25;47.57
40285;BME280;25997;50.214;19.354;2022-09-25T13:04:55;97383.59;;;17.17;47.91
40285;BME280;25997;50.214;19.354;2022-09-25T13:08:07;97384.47;;;17.16;47.62
40285;BME280;25997;50.214;19.354;2022-09-25T13:11:16;97383.59;;;17.17;47.73
40285;BME280;25997;50.214;19.354;2022-09-25T13:14:29;97379.13;;;17.24;47.99
40285;BME280;25997;50.214;19.354;2022-09-25T13:17:34;97377.31;;;17.29;48.14
40285;BME280;25997;50.214;19.354;2022-09-25T13:20:46;97380.47;;;17.58;47.78
40285;BME280;25997;50.214;19.354;2022-09-25T13:23:50;97376.84;;;17.66;47.67
40285;BME280;25997;50.214;19.354;2022-09-25T13:26:58;97376.06;;;17.57;47.56
40285;BME280;25997;50.214;19.354;2022-09-25T13:30:03;97377.97;;;17.46;47.49
40285;BME280;25997;50.214;19.354;2022-09-25T13:33:18;97370.16;;;17.34;47.48
40285;BME280;25997;50.214;19.354;2022-09-25T13:36:34;97383.63;;;17.15;47.96
40285;BME280;25997;50.214;19.354;2022-09-25T13:39:39;97367.91;;;16.91;48.26
40285;BME280;25997;50.214;19.354;2022-09-25T13:46:28;97368.06;;;16.76;48.46
40285;BME280;25997;50.214;19.354;2022-09-25T13:49:34;97356.53;;;16.82;48.75
40285;BME280;25997;50.214;19.354;2022-09-25T13:52:51;97358.25;;;16.89;48.49
40285;BME280;25997;50.214;19.354;2022-09-25T13:56:46;97353.81;;;16.91;48.97
40285;BME280;25997;50.214;19.354;2022-09-25T14:00:00;97352.88;;;16.93;48.42
40285;BME280;25997;50.214;19.354;2022-09-25T14:03:28;97355.59;;;16.89;48.12
40285;BME280;25997;50.214;19.354;2022-09-25T14:06:31;97343.34;;;16.74;47.97
40285;BME280;25997;50.214;19.354;2022-09-25T14:09:34;97340.75;;;16.68;48.62
40285;BME280;25997;50.214;19.354;2022-09-25T14:12:43;97342.47;;;16.75;48.61
40285;BME280;25997;50.214;19.354;2022-09-25T14:15:49;97332.72;;;16.77;48.95
40285;BME280;25997;50.214;19.354;2022-09-25T14:18:56;97330.03;;;16.82;48.75
40285;BME280;25997;50.214;19.354;2022-09-25T14:22:02;97326.56;;;16.72;48.79
40285;BME280;25997;50.214;19.354;2022-09-25T14:25:22;97321.31;;;16.68;49.27
40285;BME280;25997;50.214;19.354;2022-09-25T14:28:26;97323.16;;;16.61;49.60
40285;BME280;25997;50.214;19.354;2022-09-25T14:31:42;97318.75;;;16.59;49.89
40285;BME280;25997;50.214;19.354;2022-09-25T14:35:01;97320.59;;;16.51;49.80
40285;BME280;25997;50.214;19.354;2022-09-25T14:42:03;97321.53;;;16.40;49.91
40285;BME280;25997;50.214;19.354;2022-09-25T14:48:57;97324.13;;;16.53;50.17
40285;BME280;25997;50.214;19.354;2022-09-25T14:52:05;97318.88;;;16.48;50.09
40285;BME280;25997;50.214;19.354;2022-09-25T14:55:14;97318.03;;;16.38;50.57
40285;BME280;25997;50.214;19.354;2022-09-25T14:58:25;97325.22;;;16.24;50.45
40285;BME280;25997;50.214;19.354;2022-09-25T15:01:30;97332.31;;;16.21;50.80
40285;BME280;25997;50.214;19.354;2022-09-25T15:04:33;97324.38;;;16.18;50.83
40285;BME280;25997;50.214;19.354;2022-09-25T15:07:41;97325.25;;;16.21;50.99
40285;BME280;25997;50.214;19.354;2022-09-25T15:10:43;97312.84;;;16.26;50.93
40285;BME280;25997;50.214;19.354;2022-09-25T15:13:46;97315.50;;;16.26;51.12
40285;BME280;25997;50.214;19.354;2022-09-25T15:16:48;97312.81;;;16.31;51.22
40285;BME280;25997;50.214;19.354;2022-09-25T15:20:11;97309.16;;;16.45;50.72
40285;BME280;25997;50.214;19.354;2022-09-25T15:23:17;97302.97;;;16.45;51.29
40285;BME280;25997;50.214;19.354;2022-09-25T15:26:22;97303.88;;;16.41;51.26
40285;BME280;25997;50.214;19.354;2022-09-25T15:29:24;97296.81;;;16.38;51.46
40285;BME280;25997;50.214;19.354;2022-09-25T15:32:31;97291.50;;;16.41;51.63
40285;BME280;25997;50.214;19.354;2022-09-25T15:35:39;97289.56;;;16.63;51.89
40285;BME280;25997;50.214;19.354;2022-09-25T15:38:43;97281.25;;;16.93;51.06
40285;BME280;25997;50.214;19.354;2022-09-25T15:41:46;97287.59;;;16.80;50.84
40285;BME280;25997;50.214;19.354;2022-09-25T15:44:49;97286.47;;;17.02;50.55
40285;BME280;25997;50.214;19.354;2022-09-25T15:47:52;97292.00;;;17.56;50.18
40285;BME280;25997;50.214;19.354;2022-09-25T15:50:56;97293.22;;;17.96;49.17
40285;BME280;25997;50.214;19.354;2022-09-25T15:54:14;97296.06;;;17.81;48.74
40285;BME280;25997;50.214;19.354;2022-09-25T15:57:27;97291.25;;;17.45;49.27
40285;BME280;25997;50.214;19.354;2022-09-25T16:00:30;97297.81;;;17.13;49.44
40285;BME280;25997;50.214;19.354;2022-09-25T16:03:51;97303.59;;;16.73;49.66
40285;BME280;25997;50.214;19.354;2022-09-25T16:07:27;97294.25;;;16.29;50.30
40285;BME280;25997;50.214;19.354;2022-09-25T16:10:32;97294.53;;;15.96;50.88
40285;BME280;25997;50.214;19.354;2022-09-25T16:13:36;97283.25;;;15.68;50.99
40285;BME280;25997;50.214;19.354;2022-09-25T16:16:45;97278.13;;;15.37;51.17
40285;BME280;25997;50.214;19.354;2022-09-25T16:20:05;97274.69;;;15.09;51.51
40285;BME280;25997;50.214;19.354;2022-09-25T16:23:27;97280.97;;;14.82;51.88
40285;BME280;25997;50.214;19.354;2022-09-25T16:26:36;97275.75;;;14.52;52.42
40285;BME280;25997;50.214;19.354;2022-09-25T16:29:42;97268.72;;;14.27;52.65
40285;BME280;25997;50.214;19.354;2022-09-25T16:32:48;97264.34;;;14.03;52.80
40285;BME280;25997;50.214;19.354;2022-09-25T16:35:51;97265.19;;;13.86;53.25
40285;BME280;25997;50.214;19.354;2022-09-25T16:39:27;97274.84;;;13.67;54.20
40285;BME280;25997;50.214;19.354;2022-09-25T16:42:32;97282.72;;;13.46;53.85
40285;BME280;25997;50.214;19.354;2022-09-25T16:45:55;97287.06;;;13.33;54.55
40285;BME280;25997;50.214;19.354;2022-09-25T16:49:00;97284.44;;;13.24;54.35
40285;BME280;25997;50.214;19.354;2022-09-25T16:52:05;97285.28;;;13.19;54.49
40285;BME280;25997;50.214;19.354;2022-09-25T16:55:16;97274.75;;;13.19;54.40
40285;BME280;25997;50.214;19.354;2022-09-25T16:58:21;97289.66;;;13.18;54.52
40285;BME280;25997;50.214;19.354;2022-09-25T17:01:25;97281.78;;;13.21;54.62
40285;BME280;25997;50.214;19.354;2022-09-25T17:04:29;97280.03;;;13.22;54.57
40285;BME280;25997;50.214;19.354;2022-09-25T17:07:32;97288.78;;;13.22;54.69
40285;BME280;25997;50.214;19.354;2022-09-25T17:10:35;97287.03;;;13.12;55.19
40285;BME280;25997;50.214;19.354;2022-09-25T17:13:39;97274.69;;;13.05;55.52
40285;BME280;25997;50.214;19.354;2022-09-25T17:16:43;97278.16;;;13.03;55.61
40285;BME280;25997;50.214;19.354;2022-09-25T17:19:46;97285.16;;;13.01;55.72
40285;BME280;25997;50.214;19.354;2022-09-25T17:22:49;97271.13;;;12.99;55.75
40285;BME280;25997;50.214;19.354;2022-09-25T17:25:53;97272.88;;;13.01;55.77
40285;BME280;25997;50.214;19.354;2022-09-25T17:29:01;97271.13;;;13.03;55.74
40285;BME280;25997;50.214;19.354;2022-09-25T17:32:04;97272.03;;;13.04;55.74
40285;BME280;25997;50.214;19.354;2022-09-25T17:35:25;97272.94;;;13.07;55.73
40285;BME280;25997;50.214;19.354;2022-09-25T17:38:30;97276.41;;;13.02;55.77
40285;BME280;25997;50.214;19.354;2022-09-25T17:41:35;97272.88;;;13.03;55.85
40285;BME280;25997;50.214;19.354;2022-09-25T17:44:39;97283.47;;;13.06;55.72
40285;BME280;25997;50.214;19.354;2022-09-25T17:47:43;97281.75;;;13.11;55.64
40285;BME280;25997;50.214;19.354;2022-09-25T17:50:46;97277.38;;;13.17;55.58
40285;BME280;25997;50.214;19.354;2022-09-25T17:53:48;97280.03;;;13.23;55.63
40285;BME280;25997;50.214;19.354;2022-09-25T17:56:52;97280.03;;;13.34;55.40
40285;BME280;25997;50.214;19.354;2022-09-25T17:59:56;97276.56;;;13.41;55.26
40285;BME280;25997;50.214;19.354;2022-09-25T18:02:59;97283.63;;;13.54;55.14
40285;BME280;25997;50.214;19.354;2022-09-25T18:06:01;97272.19;;;13.62;55.29
40285;BME280;25997;50.214;19.354;2022-09-25T18:09:04;97270.44;;;13.63;55.07
40285;BME280;25997;50.214;19.354;2022-09-25T18:12:07;97271.31;;;13.60;55.18
40285;BME280;25997;50.214;19.354;2022-09-25T18:15:12;97269.53;;;13.53;55.25
40285;BME280;25997;50.214;19.354;2022-09-25T18:18:15;97262.50;;;13.39;55.43
40285;BME280;25997;50.214;19.354;2022-09-25T18:21:18;97266.00;;;13.29;55.35
40285;BME280;25997;50.214;19.354;2022-09-25T18:24:37;97260.69;;;13.26;55.81
40285;BME280;25997;50.214;19.354;2022-09-25T18:27:40;97258.91;;;13.16;55.18
40285;BME280;25997;50.214;19.354;2022-09-25T18:30:44;97266.78;;;13.11;55.29
40285;BME280;25997;50.214;19.354;2022-09-25T18:33:47;97258.84;;;13.04;55.41